MiSS Donna — WDG2382 — position and weather

sailwx.info

Track history (hours):
 
Tides and Currents Weather Stations Pressure Air Temp Water Temp Dewpoint Dewpoint Depression Visibility Wind Speed Wind Dir Waves Ship Positions

MiSS Donna

Owner: OCEAN MARINE BOAT RENTALS,LLC, MORGAN CITY, LA. More information available from US FCC via Universal Licensing System and Coast Guard Vessel Documentation Center.

Last reported at 2017-Feb-21 18:33 UTC. Time now 2017-Feb-21 19:06 UTC.
Position N 39°13' W 076°35'.

Length 21 m; draft 2.7 m.

Type: Towing. MMSI: 367515090.

Date/timePositionNaut miles runAvg speedWind from/ knotsBaromVisibWave heightAir tempDewpointWater temp
2017-Feb-21 18:33N 39°13' W 076°35'0 0.0
2017-Feb-21 17:27N 39°13' W 076°35'0 0.0
2017-Feb-21 16:33N 39°13' W 076°35'2 2.3
2017-Feb-21 15:33N 39°15' W 076°35'0 0.0
2017-Feb-21 14:33N 39°15' W 076°35'0 0.1
2017-Feb-21 13:32N 39°15' W 076°35'2 0.1
2017-Feb-20 02:13N 39°13' W 076°35'0 0.0
2017-Feb-20 01:32N 39°13' W 076°35'0 0.0
2017-Feb-20 00:33N 39°13' W 076°35'0 0.0
2017-Feb-19 23:24N 39°13' W 076°35'0 0.0
2017-Feb-19 22:19N 39°13' W 076°35'0 0.0
2017-Feb-19 21:33N 39°13' W 076°35'0 0.0
2017-Feb-19 16:27N 39°13' W 076°35'0 0.0
2017-Feb-19 15:14N 39°13' W 076°35'0 0.0
2017-Feb-19 14:27N 39°13' W 076°35'0 0.0
2017-Feb-19 12:10N 39°13' W 076°35'0 0.0
2017-Feb-19 10:30N 39°13' W 076°35'0 0.0
2017-Feb-19 09:23N 39°13' W 076°35'0 0.0
2017-Feb-19 08:30N 39°13' W 076°35'0 0.0
2017-Feb-19 07:24N 39°13' W 076°35'0 0.0
2017-Feb-19 06:32N 39°13' W 076°35'0 0.0
2017-Feb-19 05:33N 39°13' W 076°35'0 0.0
2017-Feb-19 03:20N 39°13' W 076°35'0 0.0
2017-Feb-19 02:13N 39°13' W 076°35'0 0.0
2017-Feb-18 18:13N 39°13' W 076°35'2 3.2
2017-Feb-18 17:30N 39°15' W 076°35'1 0.6
2017-Feb-18 16:33N 39°15' W 076°34'0 0.4
2017-Feb-18 15:30N 39°14' W 076°34'1 1.0
2017-Feb-18 14:32N 39°15' W 076°34'2 1.7
2017-Feb-18 13:33N 39°14' W 076°33'2 1.6
2017-Feb-18 12:33N 39°15' W 076°34'2 2.3
2017-Feb-18 11:32N 39°13' W 076°35'0 0.0
2017-Feb-18 10:07N 39°13' W 076°35'0 0.0
2017-Feb-18 09:33N 39°13' W 076°35'1 0.7
2017-Feb-18 08:33N 39°13' W 076°34'5 4.9
2017-Feb-18 07:33N 39°11' W 076°28'5 4.7
2017-Feb-18 06:33N 39°08' W 076°24'5 5.1
2017-Feb-18 05:33N 39°03' W 076°23'5 5.1
2017-Feb-18 04:31N 38°58' W 076°24'6 5.4
2017-Feb-18 03:30N 38°52' W 076°25'52 5.2
2017-Feb-17 17:27N 38°01' W 076°14'66 2.3
2017-Feb-16 13:09N 39°06' W 076°24'11 4.1
2017-Feb-16 10:33N 39°13' W 076°35'0 0.0
2017-Feb-16 09:32N 39°13' W 076°35'0 0.0
2017-Feb-16 08:32N 39°13' W 076°35'0 0.0
2017-Feb-16 07:33N 39°13' W 076°35'0 0.0
2017-Feb-16 06:29N 39°13' W 076°35'0 0.0
2017-Feb-16 05:33N 39°13' W 076°35'0 0.0
2017-Feb-16 04:17N 39°13' W 076°35'0 0.0
2017-Feb-16 03:25N 39°13' W 076°35'0 0.0
2017-Feb-16 02:32N 39°13' W 076°35'0 0.0
2017-Feb-16 01:33N 39°13' W 076°35'0 0.0
2017-Feb-16 00:27N 39°13' W 076°35'0 0.0
2017-Feb-15 22:15N 39°13' W 076°35'0 0.0
2017-Feb-15 21:30N 39°13' W 076°35'0 0.0
2017-Feb-15 20:16N 39°13' W 076°35'0 0.0
2017-Feb-15 19:33N 39°13' W 076°35'3 3.0
2017-Feb-15 18:33N 39°13' W 076°31'1 1.4
2017-Feb-15 17:32N 39°14' W 076°32'1 0.9
2017-Feb-15 16:32N 39°13' W 076°33'1 0.3
2017-Feb-15 13:32N 39°13' W 076°34'0 0.0
2017-Feb-14 21:30N 39°13' W 076°35'0 0.0
2017-Feb-14 18:29N 39°13' W 076°35'0 0.0
2017-Feb-14 17:22N 39°13' W 076°35'0 0.4
2017-Feb-14 16:33N 39°13' W 076°35'2 1.0
2017-Feb-14 14:29N 39°15' W 076°35'2 0.1
2017-Feb-13 05:16N 39°13' W 076°35'0 0.0
2017-Feb-12 07:04N 39°13' W 076°35'0 0.0
2017-Feb-12 06:32N 39°13' W 076°35'  
Track history (hours):
 
Tides and Currents Weather Stations Pressure Air Temp Water Temp Dewpoint Dewpoint Depression Visibility Wind Speed Wind Dir Waves Ship Positions

MiSS Donna

Owner: OCEAN MARINE BOAT RENTALS,LLC, MORGAN CITY, LA. More information available from US FCC via Universal Licensing System and Coast Guard Vessel Documentation Center.

Last reported at 2017-Feb-21 18:33 UTC. Time now 2017-Feb-21 19:06 UTC.
Position N 39°13' W 076°35'.

Length 21 m; draft 2.7 m.

Type: Towing. MMSI: 367515090.

Date/timePositionNaut miles runAvg speedWind from/ knotsBaromVisibWave heightAir tempDewpointWater temp
2017-Feb-21 18:33N 39°13' W 076°35'0 0.0
2017-Feb-21 17:27N 39°13' W 076°35'0 0.0
2017-Feb-21 16:33N 39°13' W 076°35'2 2.3
2017-Feb-21 15:33N 39°15' W 076°35'0 0.0
2017-Feb-21 14:33N 39°15' W 076°35'0 0.1
2017-Feb-21 13:32N 39°15' W 076°35'2 0.1
2017-Feb-20 02:13N 39°13' W 076°35'0 0.0
2017-Feb-20 01:32N 39°13' W 076°35'0 0.0
2017-Feb-20 00:33N 39°13' W 076°35'0 0.0
2017-Feb-19 23:24N 39°13' W 076°35'0 0.0
2017-Feb-19 22:19N 39°13' W 076°35'0 0.0
2017-Feb-19 21:33N 39°13' W 076°35'0 0.0
2017-Feb-19 16:27N 39°13' W 076°35'0 0.0
2017-Feb-19 15:14N 39°13' W 076°35'0 0.0
2017-Feb-19 14:27N 39°13' W 076°35'0 0.0
2017-Feb-19 12:10N 39°13' W 076°35'0 0.0
2017-Feb-19 10:30N 39°13' W 076°35'0 0.0
2017-Feb-19 09:23N 39°13' W 076°35'0 0.0
2017-Feb-19 08:30N 39°13' W 076°35'0 0.0
2017-Feb-19 07:24N 39°13' W 076°35'0 0.0
2017-Feb-19 06:32N 39°13' W 076°35'0 0.0
2017-Feb-19 05:33N 39°13' W 076°35'0 0.0
2017-Feb-19 03:20N 39°13' W 076°35'0 0.0
2017-Feb-19 02:13N 39°13' W 076°35'0 0.0
2017-Feb-18 18:13N 39°13' W 076°35'2 3.2
2017-Feb-18 17:30N 39°15' W 076°35'1 0.6
2017-Feb-18 16:33N 39°15' W 076°34'0 0.4
2017-Feb-18 15:30N 39°14' W 076°34'1 1.0
2017-Feb-18 14:32N 39°15' W 076°34'2 1.7
2017-Feb-18 13:33N 39°14' W 076°33'2 1.6
2017-Feb-18 12:33N 39°15' W 076°34'2 2.3
2017-Feb-18 11:32N 39°13' W 076°35'0 0.0
2017-Feb-18 10:07N 39°13' W 076°35'0 0.0
2017-Feb-18 09:33N 39°13' W 076°35'1 0.7
2017-Feb-18 08:33N 39°13' W 076°34'5 4.9
2017-Feb-18 07:33N 39°11' W 076°28'5 4.7
2017-Feb-18 06:33N 39°08' W 076°24'5 5.1
2017-Feb-18 05:33N 39°03' W 076°23'5 5.1
2017-Feb-18 04:31N 38°58' W 076°24'6 5.4
2017-Feb-18 03:30N 38°52' W 076°25'52 5.2
2017-Feb-17 17:27N 38°01' W 076°14'66 2.3
2017-Feb-16 13:09N 39°06' W 076°24'11 4.1
2017-Feb-16 10:33N 39°13' W 076°35'0 0.0
2017-Feb-16 09:32N 39°13' W 076°35'0 0.0
2017-Feb-16 08:32N 39°13' W 076°35'0 0.0
2017-Feb-16 07:33N 39°13' W 076°35'0 0.0
2017-Feb-16 06:29N 39°13' W 076°35'0 0.0
2017-Feb-16 05:33N 39°13' W 076°35'0 0.0
2017-Feb-16 04:17N 39°13' W 076°35'0 0.0
2017-Feb-16 03:25N 39°13' W 076°35'0 0.0
2017-Feb-16 02:32N 39°13' W 076°35'0 0.0
2017-Feb-16 01:33N 39°13' W 076°35'0 0.0
2017-Feb-16 00:27N 39°13' W 076°35'0 0.0
2017-Feb-15 22:15N 39°13' W 076°35'0 0.0
2017-Feb-15 21:30N 39°13' W 076°35'0 0.0
2017-Feb-15 20:16N 39°13' W 076°35'0 0.0
2017-Feb-15 19:33N 39°13' W 076°35'3 3.0
2017-Feb-15 18:33N 39°13' W 076°31'1 1.4
2017-Feb-15 17:32N 39°14' W 076°32'1 0.9
2017-Feb-15 16:32N 39°13' W 076°33'1 0.3
2017-Feb-15 13:32N 39°13' W 076°34'0 0.0
2017-Feb-14 21:30N 39°13' W 076°35'0 0.0
2017-Feb-14 18:29N 39°13' W 076°35'0 0.0
2017-Feb-14 17:22N 39°13' W 076°35'0 0.4
2017-Feb-14 16:33N 39°13' W 076°35'2 1.0
2017-Feb-14 14:29N 39°15' W 076°35'2 0.1
2017-Feb-13 05:16N 39°13' W 076°35'0 0.0
2017-Feb-12 07:04N 39°13' W 076°35'0 0.0
2017-Feb-12 06:32N 39°13' W 076°35'  

Dump ship's entire track history